createdAt,value
2022-12-11T00:00:24.938Z,0.38
2022-12-11T00:01:14.124Z,0.41
2022-12-11T00:02:01.370Z,0.43
2022-12-11T00:02:48.429Z,0.43
2022-12-11T00:03:35.302Z,0.45
2022-12-11T00:04:22.309Z,0.48
2022-12-11T00:05:09.669Z,0.52
2022-12-11T00:05:56.670Z,0.48
2022-12-11T00:06:43.611Z,0.44
2022-12-11T00:07:30.398Z,0.47
2022-12-11T00:08:17.348Z,0.50
2022-12-11T00:09:04.271Z,0.49
2022-12-11T00:09:51.219Z,0.51
2022-12-11T00:10:38.309Z,0.42
2022-12-11T00:11:25.229Z,0.37
2022-12-11T00:12:12.183Z,0.34
2022-12-11T00:12:58.981Z,0.33
2022-12-11T00:13:47.295Z,0.40
2022-12-11T00:14:34.279Z,0.40
2022-12-11T00:15:21.087Z,0.43
2022-12-11T00:16:08.610Z,0.43
2022-12-11T00:16:55.879Z,0.42
2022-12-11T00:17:42.691Z,0.42
2022-12-11T00:18:29.512Z,0.45
2022-12-11T00:19:16.895Z,0.46
2022-12-11T00:20:05.250Z,0.49
2022-12-11T00:20:52.135Z,0.39
2022-12-11T00:21:38.926Z,0.40
2022-12-11T00:22:25.713Z,0.39
2022-12-11T00:23:12.744Z,0.33
2022-12-11T00:23:59.554Z,0.41
2022-12-11T00:24:46.713Z,0.36
2022-12-11T00:25:33.511Z,0.35
2022-12-11T00:26:20.496Z,0.35
2022-12-11T00:27:08.133Z,0.38
2022-12-11T00:27:54.884Z,0.39
2022-12-11T00:28:42.705Z,0.44
2022-12-11T00:29:29.513Z,0.44
2022-12-11T00:30:16.559Z,0.38
2022-12-11T00:31:08.115Z,0.39
2022-12-11T00:31:54.887Z,0.44
2022-12-11T00:32:42.366Z,0.40
2022-12-11T00:33:29.116Z,0.38
2022-12-11T00:34:15.925Z,0.43
2022-12-11T00:35:02.776Z,0.43
2022-12-11T00:35:49.566Z,0.47
2022-12-11T00:36:36.334Z,0.49
2022-12-11T00:37:23.207Z,0.50
2022-12-11T00:38:17.724Z,0.60
2022-12-11T00:39:05.347Z,0.56
2022-12-11T00:39:52.116Z,0.43
2022-12-11T00:40:38.925Z,0.45
2022-12-11T00:41:25.765Z,0.54
2022-12-11T00:42:12.623Z,0.54
2022-12-11T00:42:59.386Z,0.52
2022-12-11T00:43:46.796Z,0.48
2022-12-11T00:44:33.773Z,0.46
2022-12-11T00:45:20.625Z,0.47
2022-12-11T00:46:07.477Z,0.49
2022-12-11T00:46:54.275Z,0.50
2022-12-11T00:47:41.043Z,0.51
2022-12-11T00:48:27.875Z,0.56
2022-12-11T00:49:14.695Z,0.63
2022-12-11T00:50:01.536Z,0.63
2022-12-11T00:50:48.333Z,0.67
2022-12-11T00:51:35.185Z,0.59
2022-12-11T00:52:22.616Z,0.59
2022-12-11T00:53:09.387Z,0.64
2022-12-11T00:53:56.206Z,0.61
2022-12-11T00:54:42.976Z,0.63
2022-12-11T00:55:29.876Z,0.68
2022-12-11T00:56:19.604Z,0.68
2022-12-11T00:57:06.366Z,0.65
2022-12-11T00:57:53.264Z,0.73
2022-12-11T00:58:40.058Z,0.70
2022-12-11T00:59:28.744Z,0.75
2022-12-11T01:00:15.782Z,0.75
2022-12-11T01:01:10.184Z,0.73
2022-12-11T01:01:57.044Z,0.75
2022-12-11T01:02:43.822Z,0.77
2022-12-11T01:03:30.628Z,0.76
2022-12-11T01:04:17.395Z,0.76
2022-12-11T01:05:04.513Z,0.77
2022-12-11T01:05:54.787Z,0.77
2022-12-11T01:06:41.614Z,0.83
2022-12-11T01:07:28.405Z,0.81
2022-12-11T01:08:15.190Z,0.82
2022-12-11T01:09:20.436Z,0.81
2022-12-11T01:10:25.340Z,0.81
2022-12-11T01:11:14.205Z,0.81
2022-12-11T01:12:01.013Z,0.82
2022-12-11T01:12:47.754Z,0.78
2022-12-11T01:13:34.666Z,0.79
2022-12-11T01:14:21.466Z,0.79
2022-12-11T01:15:08.880Z,0.78
2022-12-11T01:15:55.877Z,0.82
2022-12-11T01:16:42.763Z,0.82
2022-12-11T01:17:29.745Z,0.78
2022-12-11T01:18:16.574Z,0.79
2022-12-11T01:19:03.808Z,0.74
2022-12-11T01:19:50.592Z,0.76
2022-12-11T01:20:38.505Z,0.77
2022-12-11T01:21:25.324Z,0.73
2022-12-11T01:22:12.114Z,0.73
2022-12-11T01:23:00.255Z,0.73
2022-12-11T01:23:47.025Z,0.83
2022-12-11T01:24:33.866Z,0.84
2022-12-11T01:25:20.697Z,0.82
2022-12-11T01:26:12.949Z,0.76
2022-12-11T01:26:59.746Z,0.78
2022-12-11T01:27:46.563Z,0.82
2022-12-11T01:28:33.433Z,0.87
2022-12-11T01:29:20.193Z,0.82
2022-12-11T01:30:09.175Z,0.86
2022-12-11T01:30:55.968Z,0.81
2022-12-11T01:31:42.813Z,0.79
2022-12-11T01:32:29.595Z,0.85
2022-12-11T01:33:16.385Z,0.81
2022-12-11T01:34:03.315Z,0.81
2022-12-11T01:34:50.164Z,0.88
2022-12-11T01:35:36.975Z,0.82
2022-12-11T01:36:24.043Z,0.86
2022-12-11T01:37:10.854Z,0.83
2022-12-11T01:37:57.625Z,0.87
2022-12-11T01:38:45.658Z,0.87
2022-12-11T01:39:32.515Z,0.93
2022-12-11T01:40:20.380Z,0.90
2022-12-11T01:41:07.575Z,0.93
2022-12-11T01:42:01.526Z,0.95
2022-12-11T01:42:48.409Z,0.88
2022-12-11T01:43:35.867Z,0.91
2022-12-11T01:44:22.615Z,0.89
2022-12-11T01:45:21.554Z,0.86
2022-12-11T01:46:08.396Z,0.97
2022-12-11T01:46:55.246Z,0.90
2022-12-11T01:47:42.033Z,0.91
2022-12-11T01:48:30.457Z,0.98
2022-12-11T01:49:19.405Z,0.92
2022-12-11T01:50:06.474Z,0.93
2022-12-11T01:51:02.026Z,0.97
2022-12-11T01:52:07.105Z,0.94
2022-12-11T01:52:53.955Z,1.01
2022-12-11T01:53:43.515Z,0.97
2022-12-11T01:54:30.609Z,0.95
2022-12-11T01:55:18.445Z,0.94
2022-12-11T01:56:06.855Z,0.94
2022-12-11T01:56:56.196Z,0.95
2022-12-11T01:57:44.745Z,0.98
2022-12-11T01:58:34.465Z,0.99
2022-12-11T01:59:25.426Z,0.98
2022-12-11T02:00:13.048Z,0.93
2022-12-11T02:01:00.577Z,0.92
2022-12-11T02:01:53.864Z,0.93
2022-12-11T02:02:40.765Z,0.99
2022-12-11T02:03:27.752Z,1.01
2022-12-11T02:04:15.575Z,1.01
2022-12-11T02:05:03.855Z,0.96
2022-12-11T02:05:50.926Z,0.97
2022-12-11T02:06:42.167Z,1.05
2022-12-11T02:07:31.265Z,1.05
2022-12-11T02:08:18.345Z,1.08
2022-12-11T02:09:08.245Z,1.08
2022-12-11T02:09:55.128Z,1.07
2022-12-11T02:11:22.465Z,1.00
2022-12-11T02:12:38.385Z,0.96
2022-12-11T02:13:50.086Z,0.99
2022-12-11T02:15:01.214Z,1.00
2022-12-11T02:16:01.227Z,0.92
2022-12-11T02:17:00.295Z,1.07
2022-12-11T02:18:01.966Z,1.02
2022-12-11T02:18:56.214Z,1.01
2022-12-11T02:19:51.875Z,1.00
2022-12-11T02:20:43.643Z,1.00
2022-12-11T02:21:41.857Z,1.01
2022-12-11T02:22:46.596Z,1.03
2022-12-11T02:24:12.184Z,1.09
2022-12-11T02:25:10.188Z,1.05
2022-12-11T02:26:04.205Z,1.06
2022-12-11T02:27:03.323Z,1.01
2022-12-11T02:28:04.894Z,1.00
2022-12-11T02:28:56.807Z,1.00
2022-12-11T02:29:54.660Z,1.04
2022-12-11T02:30:42.685Z,1.02
2022-12-11T02:32:07.114Z,1.07
2022-12-11T02:32:58.747Z,1.08
2022-12-11T02:33:56.896Z,1.06
2022-12-11T02:34:48.386Z,0.99
2022-12-11T02:35:38.813Z,1.01
2022-12-11T02:36:28.776Z,1.00
2022-12-11T02:37:20.665Z,1.03
2022-12-11T02:38:15.854Z,1.05
2022-12-11T02:39:03.827Z,1.05
2022-12-11T02:39:52.576Z,1.05
2022-12-11T02:40:40.557Z,1.10
2022-12-11T02:41:27.917Z,1.13
2022-12-11T02:42:16.525Z,1.15
2022-12-11T02:43:06.246Z,1.12
2022-12-11T02:43:54.046Z,1.14
2022-12-11T02:44:41.176Z,1.13
2022-12-11T02:45:28.448Z,1.06
2022-12-11T02:46:15.933Z,1.11
2022-12-11T02:47:04.567Z,1.17
2022-12-11T02:47:52.116Z,1.15
2022-12-11T02:48:40.934Z,1.08
2022-12-11T02:49:28.494Z,1.06
2022-12-11T02:50:18.754Z,1.11
2022-12-11T02:51:07.017Z,1.17
2022-12-11T02:51:55.545Z,1.18
2022-12-11T02:52:43.265Z,1.24
2022-12-11T02:53:31.674Z,1.15
2022-12-11T02:54:21.489Z,1.13
2022-12-11T02:55:09.814Z,1.13
2022-12-11T02:56:04.795Z,1.13
2022-12-11T02:56:55.884Z,1.09
2022-12-11T02:57:43.406Z,1.10
2022-12-11T02:58:32.985Z,1.16
2022-12-11T02:59:24.484Z,1.16
2022-12-11T03:00:12.775Z,1.14
2022-12-11T03:00:59.649Z,1.17
2022-12-11T03:01:47.487Z,1.18
2022-12-11T03:02:34.466Z,1.15
2022-12-11T03:03:22.154Z,1.18
2022-12-11T03:04:09.228Z,1.17
2022-12-11T03:04:57.529Z,1.22
2022-12-11T03:05:46.306Z,1.18
2022-12-11T03:06:37.108Z,1.17
2022-12-11T03:07:28.916Z,1.23
2022-12-11T03:08:18.038Z,1.25
2022-12-11T03:09:05.886Z,1.24
2022-12-11T03:09:52.949Z,1.16
2022-12-11T03:10:39.737Z,1.10
2022-12-11T03:11:26.551Z,1.15
2022-12-11T03:12:20.407Z,1.18
2022-12-11T03:13:07.176Z,1.14
2022-12-11T03:13:54.378Z,1.18
2022-12-11T03:14:42.331Z,1.21
2022-12-11T03:15:36.485Z,1.19
2022-12-11T03:16:36.363Z,1.17
2022-12-11T03:17:33.494Z,1.17
2022-12-11T03:18:42.044Z,1.17
2022-12-11T03:19:36.032Z,1.21
2022-12-11T03:20:40.864Z,1.21
2022-12-11T03:21:38.736Z,1.23
2022-12-11T03:22:46.496Z,1.15
2022-12-11T03:23:54.871Z,1.20
2022-12-11T03:24:46.196Z,1.25
2022-12-11T03:25:44.287Z,1.26
2022-12-11T03:26:33.164Z,1.28
2022-12-11T03:27:28.017Z,1.23
2022-12-11T03:28:21.705Z,1.25
2022-12-11T03:29:16.376Z,1.26
2022-12-11T03:30:08.249Z,1.30
2022-12-11T03:30:56.196Z,1.21
2022-12-11T03:31:51.196Z,1.22
2022-12-11T03:32:50.995Z,1.23
2022-12-11T03:33:39.827Z,1.21
2022-12-11T03:34:45.084Z,1.27
2022-12-11T03:35:41.861Z,1.20
2022-12-11T03:36:32.602Z,1.20
2022-12-11T03:37:20.054Z,1.22
2022-12-11T03:38:10.034Z,1.23
2022-12-11T03:39:12.958Z,1.27
2022-12-11T03:40:04.164Z,1.24
2022-12-11T03:40:54.584Z,1.25
2022-12-11T03:41:43.035Z,1.20
2022-12-11T03:42:30.046Z,1.28
2022-12-11T03:43:17.294Z,1.27
2022-12-11T03:44:04.283Z,1.23
2022-12-11T03:44:52.434Z,1.21
2022-12-11T03:45:40.476Z,1.26
2022-12-11T03:46:35.673Z,1.32
2022-12-11T03:47:24.513Z,1.28
2022-12-11T03:48:12.152Z,1.26
2022-12-11T03:49:02.424Z,1.31
2022-12-11T03:49:50.126Z,1.33
2022-12-11T03:50:37.385Z,1.34
2022-12-11T03:51:24.444Z,1.35
2022-12-11T03:52:12.896Z,1.38
2022-12-11T03:53:01.042Z,1.30
2022-12-11T03:53:48.135Z,1.36
2022-12-11T03:54:35.297Z,1.32
2022-12-11T03:55:23.005Z,1.28
2022-12-11T03:56:11.164Z,1.30
2022-12-11T03:56:59.802Z,1.30
2022-12-11T03:57:46.585Z,1.30
2022-12-11T03:58:33.561Z,1.35
2022-12-11T03:59:20.326Z,1.30
2022-12-11T04:00:10.135Z,1.29
2022-12-11T04:00:56.915Z,1.29
2022-12-11T04:01:43.803Z,1.34
2022-12-11T04:02:31.122Z,1.30
2022-12-11T04:03:18.192Z,1.31
2022-12-11T04:04:05.113Z,1.32
2022-12-11T04:04:51.905Z,1.27
2022-12-11T04:05:38.986Z,1.25
2022-12-11T04:06:25.754Z,1.28
2022-12-11T04:07:12.536Z,1.23
2022-12-11T04:07:59.359Z,1.26
2022-12-11T04:08:46.201Z,1.32
2022-12-11T04:09:33.379Z,1.30
2022-12-11T04:10:20.170Z,1.27
2022-12-11T04:11:25.925Z,1.25
2022-12-11T04:12:12.705Z,1.27
2022-12-11T04:12:59.475Z,1.33
2022-12-11T04:13:46.345Z,1.31
2022-12-11T04:14:51.770Z,1.35
2022-12-11T04:15:39.782Z,1.40
2022-12-11T04:16:26.624Z,1.35
2022-12-11T04:17:33.397Z,1.39
2022-12-11T04:18:38.633Z,1.40
2022-12-11T04:19:44.777Z,1.30
2022-12-11T04:20:50.315Z,1.36
2022-12-11T04:21:55.915Z,1.35
2022-12-11T04:23:01.534Z,1.33
2022-12-11T04:24:07.080Z,1.36
2022-12-11T04:24:53.915Z,1.38
2022-12-11T04:25:40.716Z,1.38
2022-12-11T04:26:27.576Z,1.33
2022-12-11T04:27:14.326Z,1.33
2022-12-11T04:28:01.094Z,1.33
2022-12-11T04:28:48.394Z,1.32
2022-12-11T04:29:35.265Z,1.37
2022-12-11T04:30:28.006Z,1.39
2022-12-11T04:31:20.549Z,1.38
2022-12-11T04:32:07.375Z,1.37
2022-12-11T04:32:55.166Z,1.41
2022-12-11T04:33:42.184Z,1.47
2022-12-11T04:34:29.119Z,1.49
2022-12-11T04:35:15.974Z,1.39
2022-12-11T04:36:02.806Z,1.38
2022-12-11T04:36:49.605Z,1.35
2022-12-11T04:37:36.799Z,1.33
2022-12-11T04:38:23.585Z,1.36
2022-12-11T04:39:10.387Z,1.35
2022-12-11T04:39:57.175Z,1.38
2022-12-11T04:40:43.995Z,1.35
2022-12-11T04:41:30.913Z,1.35
2022-12-11T04:42:17.654Z,1.37
2022-12-11T04:43:04.415Z,1.37
2022-12-11T04:43:51.285Z,1.36
2022-12-11T04:44:38.075Z,1.37
2022-12-11T04:45:24.864Z,1.36
2022-12-11T04:46:15.046Z,1.38
2022-12-11T04:47:01.884Z,1.32
2022-12-11T04:47:48.756Z,1.35
2022-12-11T04:48:35.816Z,1.35
2022-12-11T04:49:22.596Z,1.35
2022-12-11T04:50:11.205Z,1.37
2022-12-11T04:50:58.644Z,1.37
2022-12-11T04:51:45.414Z,1.28
2022-12-11T04:52:32.234Z,1.29
2022-12-11T04:53:18.995Z,1.32
2022-12-11T04:54:05.795Z,1.34
2022-12-11T04:54:52.626Z,1.39
2022-12-11T04:55:39.864Z,1.41
2022-12-11T04:56:26.625Z,1.40
2022-12-11T04:57:13.496Z,1.39
2022-12-11T04:58:00.346Z,1.36
2022-12-11T04:58:48.468Z,1.32
2022-12-11T04:59:35.472Z,1.34
2022-12-11T05:00:22.896Z,1.33
2022-12-11T05:01:11.371Z,1.31
2022-12-11T05:01:58.219Z,1.30
2022-12-11T05:02:45.152Z,1.35
2022-12-11T05:03:32.006Z,1.33
2022-12-11T05:04:18.784Z,1.27
2022-12-11T05:05:06.752Z,1.31
2022-12-11T05:05:54.285Z,1.24
2022-12-11T05:06:41.075Z,1.19
2022-12-11T05:07:27.897Z,1.17
2022-12-11T05:08:14.712Z,1.13
2022-12-11T05:09:01.554Z,1.17
2022-12-11T05:09:48.415Z,1.14
2022-12-11T05:10:35.244Z,1.13
2022-12-11T05:11:22.375Z,1.10
2022-12-11T05:12:09.415Z,1.15
2022-12-11T05:12:56.195Z,1.13
2022-12-11T05:13:43.701Z,1.12
2022-12-11T05:14:32.255Z,1.16
2022-12-11T05:15:19.093Z,1.09
2022-12-11T05:16:07.611Z,1.05
2022-12-11T05:16:54.447Z,1.07
2022-12-11T05:17:41.265Z,1.07
2022-12-11T05:18:28.027Z,1.09
2022-12-11T05:19:14.864Z,1.09
2022-12-11T05:20:01.879Z,1.10
2022-12-11T05:21:01.888Z,1.07
2022-12-11T05:21:48.674Z,1.09
2022-12-11T05:22:35.633Z,1.13
2022-12-11T05:23:22.706Z,1.11
2022-12-11T05:24:09.545Z,1.02
2022-12-11T05:24:56.324Z,1.01
2022-12-11T05:25:43.115Z,1.01
2022-12-11T05:26:29.972Z,1.06
2022-12-11T05:27:16.775Z,1.11
2022-12-11T05:28:03.774Z,1.09
2022-12-11T05:28:54.506Z,1.13
2022-12-11T05:29:42.071Z,1.11
2022-12-11T05:30:28.945Z,1.06
2022-12-11T05:31:18.764Z,1.02
2022-12-11T05:32:05.774Z,1.01
2022-12-11T05:32:52.595Z,1.04
2022-12-11T05:33:39.404Z,1.01
2022-12-11T05:34:26.287Z,1.06
2022-12-11T05:35:13.276Z,1.08
2022-12-11T05:36:00.466Z,1.10
2022-12-11T05:36:47.576Z,1.04
2022-12-11T05:37:34.836Z,1.06
2022-12-11T05:38:22.788Z,1.01
2022-12-11T05:39:11.824Z,0.95
2022-12-11T05:39:58.586Z,0.92
2022-12-11T05:40:45.565Z,0.97
2022-12-11T05:41:33.126Z,1.04
2022-12-11T05:42:24.014Z,1.02
2022-12-11T05:43:13.895Z,1.01
2022-12-11T05:44:00.835Z,1.03
2022-12-11T05:44:49.784Z,1.03
2022-12-11T05:45:37.106Z,1.01
2022-12-11T05:46:26.204Z,1.02
2022-12-11T05:47:13.025Z,1.13
2022-12-11T05:47:59.844Z,1.13
2022-12-11T05:48:48.336Z,1.05
2022-12-11T05:49:35.105Z,0.97
2022-12-11T05:50:21.894Z,0.98
2022-12-11T05:51:09.659Z,0.95
2022-12-11T05:51:56.435Z,0.89
2022-12-11T05:52:43.244Z,0.88
2022-12-11T05:53:30.354Z,0.93
2022-12-11T05:54:17.450Z,0.99
2022-12-11T05:55:04.406Z,0.98
2022-12-11T05:55:51.289Z,0.94
2022-12-11T05:56:38.145Z,0.84
2022-12-11T05:57:24.938Z,0.88
2022-12-11T05:58:11.794Z,0.88
2022-12-11T05:58:59.457Z,0.87
2022-12-11T05:59:46.373Z,0.91
2022-12-11T06:00:36.209Z,0.92
2022-12-11T06:01:26.425Z,0.82
2022-12-11T06:02:13.350Z,0.88
2022-12-11T06:03:00.298Z,0.89
2022-12-11T06:03:47.696Z,0.91
2022-12-11T06:04:34.525Z,0.92
2022-12-11T06:05:21.325Z,0.92
2022-12-11T06:06:08.434Z,0.90
2022-12-11T06:06:55.430Z,0.90
2022-12-11T06:07:42.225Z,0.93
2022-12-11T06:08:29.361Z,0.89
2022-12-11T06:09:17.387Z,0.86
2022-12-11T06:10:04.744Z,0.85
2022-12-11T06:10:51.660Z,0.92
2022-12-11T06:11:39.194Z,0.90
2022-12-11T06:12:25.935Z,0.79
2022-12-11T06:13:13.187Z,0.81
2022-12-11T06:14:02.184Z,0.77
2022-12-11T06:14:48.955Z,0.80
2022-12-11T06:15:35.716Z,0.86
2022-12-11T06:16:23.334Z,0.85
2022-12-11T06:17:10.284Z,0.89
2022-12-11T06:17:57.078Z,0.91
2022-12-11T06:18:45.282Z,0.91
2022-12-11T06:19:36.735Z,0.92
2022-12-11T06:20:24.034Z,0.89
2022-12-11T06:21:17.675Z,0.79
2022-12-11T06:22:05.048Z,0.82
2022-12-11T06:22:51.845Z,0.80
2022-12-11T06:23:38.615Z,0.82
2022-12-11T06:24:25.416Z,0.80
2022-12-11T06:25:12.352Z,0.74
2022-12-11T06:25:59.416Z,0.78
2022-12-11T06:26:46.265Z,0.81
2022-12-11T06:27:33.036Z,0.82
2022-12-11T06:28:19.824Z,0.87
2022-12-11T06:29:11.036Z,0.79
2022-12-11T06:29:59.684Z,0.76
2022-12-11T06:30:46.496Z,0.79
2022-12-11T06:31:33.371Z,0.79
2022-12-11T06:32:20.186Z,0.89
2022-12-11T06:33:07.455Z,0.88
2022-12-11T06:33:54.555Z,0.86
2022-12-11T06:34:41.336Z,0.79
2022-12-11T06:35:28.205Z,0.81
2022-12-11T06:36:17.844Z,0.84
2022-12-11T06:37:04.717Z,0.80
2022-12-11T06:37:51.521Z,0.82
2022-12-11T06:38:38.664Z,0.79
2022-12-11T06:39:25.524Z,0.81
2022-12-11T06:40:15.026Z,0.89
2022-12-11T06:41:04.963Z,0.80
2022-12-11T06:41:51.737Z,0.78
2022-12-11T06:42:39.146Z,0.72
2022-12-11T06:43:26.235Z,0.69
2022-12-11T06:44:13.054Z,0.76
2022-12-11T06:45:00.037Z,0.75
2022-12-11T06:45:46.803Z,0.78
2022-12-11T06:46:33.595Z,0.78
2022-12-11T06:47:20.415Z,0.81
2022-12-11T06:48:07.213Z,0.80
2022-12-11T06:48:53.993Z,0.78
2022-12-11T06:49:40.932Z,0.85
2022-12-11T06:50:27.948Z,0.84
2022-12-11T06:51:19.885Z,0.80
2022-12-11T06:52:06.776Z,0.71
2022-12-11T06:52:53.585Z,0.74
2022-12-11T06:53:40.781Z,0.84
2022-12-11T06:54:28.856Z,0.84
2022-12-11T06:55:15.771Z,0.81
2022-12-11T06:56:07.748Z,0.80
2022-12-11T06:56:54.619Z,0.74
2022-12-11T06:57:41.575Z,0.77
2022-12-11T06:58:28.415Z,0.75
2022-12-11T06:59:15.256Z,0.76
2022-12-11T07:00:02.066Z,0.71
2022-12-11T07:00:48.953Z,0.73
2022-12-11T07:01:35.821Z,0.75
2022-12-11T07:02:23.164Z,0.77
2022-12-11T07:03:10.238Z,0.80
2022-12-11T07:03:58.752Z,0.73
2022-12-11T07:04:48.289Z,0.68
2022-12-11T07:05:37.286Z,0.71
2022-12-11T07:06:25.434Z,0.77
2022-12-11T07:07:12.610Z,0.70
2022-12-11T07:07:59.440Z,0.68
2022-12-11T07:08:46.354Z,0.71
2022-12-11T07:09:33.336Z,0.68
2022-12-11T07:10:20.174Z,0.68
2022-12-11T07:11:10.035Z,0.64
2022-12-11T07:11:57.147Z,0.64
2022-12-11T07:12:43.944Z,0.63
2022-12-11T07:13:30.715Z,0.60
2022-12-11T07:14:18.025Z,0.60
2022-12-11T07:15:08.537Z,0.62
2022-12-11T07:15:55.604Z,0.65
2022-12-11T07:16:42.451Z,0.63
2022-12-11T07:17:29.988Z,0.66
2022-12-11T07:18:16.860Z,0.66
2022-12-11T07:19:03.747Z,0.57
2022-12-11T07:19:50.617Z,0.56
2022-12-11T07:20:37.455Z,0.53
2022-12-11T07:21:24.266Z,0.52
2022-12-11T07:22:11.086Z,0.57
2022-12-11T07:22:57.904Z,0.60
2022-12-11T07:23:44.744Z,0.52
2022-12-11T07:24:31.514Z,0.56
2022-12-11T07:25:18.314Z,0.55
2022-12-11T07:26:06.815Z,0.57
2022-12-11T07:26:53.604Z,0.52
2022-12-11T07:27:40.464Z,0.55
2022-12-11T07:28:27.289Z,0.49
2022-12-11T07:29:14.226Z,0.54
2022-12-11T07:30:01.025Z,0.61
2022-12-11T07:30:47.846Z,0.61
2022-12-11T07:31:34.870Z,0.55
2022-12-11T07:32:22.221Z,0.50
2022-12-11T07:33:09.106Z,0.49
2022-12-11T07:34:05.495Z,0.43
2022-12-11T07:34:52.346Z,0.50
2022-12-11T07:35:39.116Z,0.55
2022-12-11T07:36:26.596Z,0.51
2022-12-11T07:37:13.425Z,0.50
2022-12-11T07:38:00.319Z,0.55
2022-12-11T07:38:47.248Z,0.56
2022-12-11T07:39:34.055Z,0.59
2022-12-11T07:40:20.872Z,0.58
2022-12-11T07:41:11.117Z,0.54
2022-12-11T07:41:57.885Z,0.52
2022-12-11T07:42:46.406Z,0.42
2022-12-11T07:43:34.239Z,0.43
2022-12-11T07:44:21.284Z,0.50
2022-12-11T07:45:08.933Z,0.44
2022-12-11T07:45:55.943Z,0.52
2022-12-11T07:46:42.829Z,0.54
2022-12-11T07:47:29.605Z,0.56
2022-12-11T07:48:16.396Z,0.55
2022-12-11T07:49:05.364Z,0.48
2022-12-11T07:49:52.136Z,0.47
2022-12-11T07:50:40.018Z,0.47
2022-12-11T07:51:29.537Z,0.47
2022-12-11T07:52:17.534Z,0.43
2022-12-11T07:53:04.335Z,0.46
2022-12-11T07:53:51.335Z,0.51
2022-12-11T07:54:38.129Z,0.47
2022-12-11T07:55:24.889Z,0.44
2022-12-11T07:56:11.950Z,0.47
2022-12-11T07:56:58.734Z,0.44
2022-12-11T07:57:45.564Z,0.56
2022-12-11T07:58:32.348Z,0.49
2022-12-11T07:59:19.092Z,0.49
2022-12-11T08:00:06.651Z,0.64
2022-12-11T08:00:53.775Z,0.52
2022-12-11T08:01:42.365Z,0.54
2022-12-11T08:02:32.620Z,0.50
2022-12-11T08:03:25.216Z,0.49
2022-12-11T08:04:15.937Z,0.51
2022-12-11T08:05:02.878Z,0.49
2022-12-11T08:05:50.477Z,0.50
2022-12-11T08:06:39.489Z,0.60
2022-12-11T08:07:26.278Z,0.61
2022-12-11T08:08:13.128Z,0.53
2022-12-11T08:09:01.868Z,0.51
2022-12-11T08:09:48.724Z,0.56
2022-12-11T08:10:35.575Z,0.55
2022-12-11T08:11:22.494Z,0.55
2022-12-11T08:12:09.309Z,0.50
2022-12-11T08:12:56.074Z,0.48
2022-12-11T08:13:43.379Z,0.49
2022-12-11T08:14:30.176Z,0.50
2022-12-11T08:15:17.157Z,0.56
2022-12-11T08:16:07.794Z,0.61
2022-12-11T08:16:54.517Z,0.54
2022-12-11T08:17:41.359Z,0.57
2022-12-11T08:18:28.129Z,0.66
2022-12-11T08:19:15.414Z,0.68
2022-12-11T08:20:02.238Z,0.68
2022-12-11T08:20:49.040Z,0.59
2022-12-11T08:21:35.807Z,0.65
2022-12-11T08:22:22.605Z,0.54
2022-12-11T08:23:09.385Z,0.50
2022-12-11T08:23:56.321Z,0.59
2022-12-11T08:24:43.165Z,0.65
2022-12-11T08:25:30.028Z,0.70
2022-12-11T08:26:23.055Z,0.63
2022-12-11T08:27:09.883Z,0.71
2022-12-11T08:27:56.715Z,0.79
2022-12-11T08:28:43.532Z,0.67
2022-12-11T08:29:30.296Z,0.71
2022-12-11T08:30:17.194Z,0.64
2022-12-11T08:31:06.064Z,0.64
2022-12-11T08:31:53.014Z,0.70
2022-12-11T08:32:39.808Z,0.60
2022-12-11T08:33:26.653Z,0.72
2022-12-11T08:34:14.316Z,0.68
2022-12-11T08:35:01.200Z,0.68
2022-12-11T08:35:48.145Z,0.69
2022-12-11T08:36:34.945Z,0.63
2022-12-11T08:37:21.722Z,0.70
2022-12-11T08:38:08.566Z,0.73
2022-12-11T08:38:56.424Z,0.80
2022-12-11T08:39:44.014Z,0.93
2022-12-11T08:40:30.954Z,0.85
2022-12-11T08:41:26.286Z,0.83
2022-12-11T08:42:13.163Z,0.88
2022-12-11T08:42:59.954Z,0.99
2022-12-11T08:43:47.296Z,0.92
2022-12-11T08:44:34.155Z,0.94
2022-12-11T08:45:20.934Z,0.87
2022-12-11T08:46:08.485Z,0.94
2022-12-11T08:46:55.324Z,0.97
2022-12-11T08:47:42.246Z,0.95
2022-12-11T08:48:29.035Z,1.04
2022-12-11T08:49:15.794Z,1.07
2022-12-11T08:50:03.096Z,1.15
2022-12-11T08:50:49.845Z,1.13
2022-12-11T08:51:36.869Z,0.90
2022-12-11T08:52:24.025Z,1.01
2022-12-11T08:53:10.842Z,0.94
2022-12-11T08:53:59.598Z,1.08
2022-12-11T08:54:46.374Z,1.08
2022-12-11T08:55:33.782Z,1.04
2022-12-11T08:56:21.710Z,1.18
2022-12-11T08:57:08.485Z,1.12
2022-12-11T08:57:55.584Z,1.11
2022-12-11T08:58:43.565Z,1.15
2022-12-11T08:59:30.383Z,1.18
2022-12-11T09:00:18.656Z,1.25
2022-12-11T09:01:13.127Z,1.34
2022-12-11T09:01:59.976Z,1.26
2022-12-11T09:02:46.811Z,1.31
2022-12-11T09:03:34.092Z,1.28
2022-12-11T09:04:20.905Z,1.36
2022-12-11T09:05:09.805Z,1.50
2022-12-11T09:05:56.985Z,1.44
2022-12-11T09:06:43.953Z,1.50
2022-12-11T09:07:30.724Z,1.43
2022-12-11T09:08:17.673Z,1.57
2022-12-11T09:09:04.806Z,1.59
2022-12-11T09:09:51.606Z,1.50
2022-12-11T09:10:38.424Z,1.49
2022-12-11T09:11:28.454Z,1.63
2022-12-11T09:12:15.296Z,1.68
2022-12-11T09:13:02.085Z,1.62
2022-12-11T09:13:48.944Z,1.66
2022-12-11T09:14:35.875Z,1.68
2022-12-11T09:15:22.697Z,1.74
2022-12-11T09:16:12.441Z,1.87
2022-12-11T09:16:59.485Z,1.76
2022-12-11T09:17:46.284Z,1.68
2022-12-11T09:18:33.116Z,1.78
2022-12-11T09:19:20.007Z,1.64
2022-12-11T09:20:07.513Z,1.62
2022-12-11T09:21:04.165Z,1.58
2022-12-11T09:21:50.957Z,1.48
2022-12-11T09:22:37.766Z,1.37
2022-12-11T09:23:24.546Z,1.46
2022-12-11T09:24:12.713Z,1.41
2022-12-11T09:24:59.883Z,1.41
2022-12-11T09:25:46.654Z,1.48
2022-12-11T09:26:33.495Z,1.55
2022-12-11T09:27:21.486Z,1.50
2022-12-11T09:28:08.294Z,1.49
2022-12-11T09:28:55.239Z,1.43
2022-12-11T09:29:42.293Z,1.41
2022-12-11T09:30:29.134Z,1.53
2022-12-11T09:31:18.833Z,1.54
2022-12-11T09:32:05.955Z,1.53
2022-12-11T09:32:53.294Z,1.50
2022-12-11T09:33:40.537Z,1.48
2022-12-11T09:34:29.414Z,1.53
2022-12-11T09:35:16.545Z,1.52
2022-12-11T09:36:04.247Z,1.29
2022-12-11T09:36:51.086Z,1.46
2022-12-11T09:37:37.855Z,1.57
2022-12-11T09:38:24.831Z,1.54
2022-12-11T09:39:12.565Z,1.45
2022-12-11T09:40:04.000Z,1.51
2022-12-11T09:40:54.525Z,1.47
2022-12-11T09:42:02.371Z,1.60
2022-12-11T09:43:21.694Z,1.57
2022-12-11T09:44:11.285Z,1.58
2022-12-11T09:45:02.584Z,1.61
2022-12-11T09:45:50.059Z,1.70
2022-12-11T09:46:38.039Z,1.74
2022-12-11T09:47:46.525Z,1.76
2022-12-11T09:48:34.257Z,1.53
2022-12-11T09:49:35.976Z,1.61
2022-12-11T09:50:26.987Z,1.61
2022-12-11T09:51:27.405Z,1.65
2022-12-11T09:52:17.974Z,1.65
2022-12-11T09:53:19.366Z,1.70
2022-12-11T09:54:06.497Z,1.82
2022-12-11T09:54:56.606Z,1.89
2022-12-11T09:55:52.683Z,1.79
2022-12-11T09:56:47.057Z,1.79
2022-12-11T09:57:54.411Z,1.79
2022-12-11T09:59:09.979Z,1.69
2022-12-11T10:00:04.501Z,1.63
2022-12-11T10:01:19.935Z,1.63
2022-12-11T10:02:28.425Z,1.68
2022-12-11T10:03:54.325Z,1.67
2022-12-11T10:05:12.026Z,1.75
2022-12-11T10:06:47.526Z,1.79
2022-12-11T10:08:17.681Z,1.78
2022-12-11T10:09:25.636Z,1.78
2022-12-11T10:10:15.561Z,1.78
2022-12-11T10:11:23.416Z,1.77
2022-12-11T10:12:13.006Z,1.77
2022-12-11T10:13:12.122Z,1.77
2022-12-11T10:14:36.508Z,1.75
2022-12-11T10:15:29.394Z,1.77
2022-12-11T10:16:39.265Z,1.75
2022-12-11T10:17:30.065Z,1.75
2022-12-11T10:18:21.424Z,1.91
2022-12-11T10:19:37.265Z,1.96
2022-12-11T10:20:29.424Z,1.99
2022-12-11T10:21:17.343Z,2.07
2022-12-11T10:22:04.254Z,2.09
2022-12-11T10:22:52.496Z,2.14
2022-12-11T10:23:45.156Z,2.13
2022-12-11T10:25:09.305Z,2.18
2022-12-11T10:25:54.267Z,2.21
2022-12-11T10:26:41.196Z,2.09
2022-12-11T10:27:33.098Z,2.25
2022-12-11T10:28:21.275Z,2.45
2022-12-11T10:29:14.040Z,2.55
2022-12-11T10:30:22.476Z,2.50
2022-12-11T10:31:25.675Z,2.59
2022-12-11T10:32:25.152Z,2.63
2022-12-11T10:33:11.883Z,2.69
2022-12-11T10:34:21.365Z,2.56
2022-12-11T10:35:10.687Z,2.68
2022-12-11T10:35:58.538Z,2.73
2022-12-11T10:36:45.592Z,2.77
2022-12-11T10:37:32.447Z,2.60
2022-12-11T10:38:31.707Z,2.53
2022-12-11T10:39:20.798Z,2.51
2022-12-11T10:40:08.426Z,2.45
2022-12-11T10:41:06.795Z,2.39
2022-12-11T10:41:56.755Z,2.30
2022-12-11T10:42:52.546Z,2.45
2022-12-11T10:43:46.222Z,2.40
2022-12-11T10:44:33.047Z,2.35
2022-12-11T10:45:20.056Z,2.31
2022-12-11T10:46:14.453Z,2.40
2022-12-11T10:47:03.925Z,2.40
2022-12-11T10:47:50.853Z,2.37
2022-12-11T10:48:47.637Z,2.41
2022-12-11T10:49:37.357Z,2.33
2022-12-11T10:50:26.522Z,2.31
2022-12-11T10:51:13.435Z,2.43
2022-12-11T10:52:03.550Z,2.45
2022-12-11T10:52:51.065Z,2.36
2022-12-11T10:53:40.618Z,2.39
2022-12-11T10:54:33.665Z,2.34
2022-12-11T10:55:29.785Z,2.33
2022-12-11T10:56:25.677Z,2.35
2022-12-11T10:57:14.316Z,2.49
2022-12-11T10:58:04.165Z,2.42
2022-12-11T10:58:51.177Z,2.40
2022-12-11T10:59:41.537Z,2.44
2022-12-11T11:00:33.495Z,2.68